createdAt,value
2023-03-19T00:00:32.080Z,60.01
2023-03-19T00:03:00.330Z,59.93
2023-03-19T00:05:28.335Z,59.71
2023-03-19T00:07:56.927Z,59.61
2023-03-19T00:10:24.898Z,59.53
2023-03-19T00:12:54.624Z,59.39
2023-03-19T00:15:22.786Z,59.37
2023-03-19T00:17:50.671Z,59.12
2023-03-19T00:20:19.912Z,59.08
2023-03-19T00:22:48.742Z,58.78
2023-03-19T00:25:16.694Z,58.82
2023-03-19T00:27:44.702Z,58.67
2023-03-19T00:30:15.072Z,58.76
2023-03-19T00:32:42.945Z,58.85
2023-03-19T00:35:11.218Z,58.70
2023-03-19T00:37:39.061Z,58.79
2023-03-19T00:40:08.788Z,58.61
2023-03-19T00:42:36.722Z,58.42
2023-03-19T00:45:04.911Z,58.43
2023-03-19T00:47:34.133Z,58.32
2023-03-19T00:50:02.010Z,58.31
2023-03-19T00:52:29.896Z,58.21
2023-03-19T00:54:57.739Z,58.16
2023-03-19T00:57:25.742Z,58.01
2023-03-19T00:59:53.730Z,58.10
2023-03-19T01:02:21.616Z,57.81
2023-03-19T01:04:51.111Z,57.62
2023-03-19T01:07:18.971Z,57.75
2023-03-19T01:09:46.816Z,57.70
2023-03-19T01:12:14.711Z,57.57
2023-03-19T01:14:42.581Z,57.60
2023-03-19T01:17:10.467Z,57.48
2023-03-19T01:19:38.333Z,57.51
2023-03-19T01:22:07.712Z,57.41
2023-03-19T01:24:35.607Z,57.34
2023-03-19T01:27:03.518Z,57.45
2023-03-19T01:29:31.509Z,57.50
2023-03-19T01:31:59.397Z,57.34
2023-03-19T01:34:27.319Z,57.40
2023-03-19T01:36:55.307Z,57.43
2023-03-19T01:39:24.531Z,57.35
2023-03-19T01:41:52.624Z,57.38
2023-03-19T01:44:25.218Z,57.29
2023-03-19T01:46:53.287Z,57.34
2023-03-19T01:49:21.546Z,57.41
2023-03-19T01:51:49.424Z,57.41
2023-03-19T01:54:19.995Z,57.45
2023-03-19T01:56:50.542Z,57.44
2023-03-19T01:59:21.334Z,57.42
2023-03-19T02:01:51.781Z,57.45
2023-03-19T02:04:19.722Z,57.58
2023-03-19T02:06:47.607Z,57.42
2023-03-19T02:09:15.613Z,57.57
2023-03-19T02:11:43.486Z,57.61
2023-03-19T02:14:13.374Z,57.60
2023-03-19T02:16:41.243Z,57.62
2023-03-19T02:19:10.912Z,57.39
2023-03-19T02:21:38.765Z,57.45
2023-03-19T02:24:10.063Z,57.43
2023-03-19T02:26:39.298Z,57.45
2023-03-19T02:29:07.481Z,57.57
2023-03-19T02:31:35.493Z,57.60
2023-03-19T02:34:04.181Z,57.48
2023-03-19T02:36:34.142Z,57.61
2023-03-19T02:39:02.324Z,57.59
2023-03-19T02:41:30.568Z,57.50
2023-03-19T02:43:59.811Z,57.44
2023-03-19T02:46:27.830Z,57.59
2023-03-19T02:48:55.746Z,57.56
2023-03-19T02:51:23.604Z,57.55
2023-03-19T02:53:51.514Z,57.41
2023-03-19T02:56:19.390Z,57.62
2023-03-19T02:58:47.247Z,57.52
2023-03-19T03:01:16.692Z,57.64
2023-03-19T03:03:44.634Z,57.70
2023-03-19T03:06:12.491Z,57.81
2023-03-19T03:08:40.621Z,57.73
2023-03-19T03:11:09.308Z,57.80
2023-03-19T03:13:37.290Z,57.82
2023-03-19T03:16:05.463Z,57.90
2023-03-19T03:18:34.782Z,58.04
2023-03-19T03:21:03.593Z,58.07
2023-03-19T03:23:31.437Z,58.18
2023-03-19T03:25:59.315Z,58.17
2023-03-19T03:28:27.174Z,58.15
2023-03-19T03:30:59.791Z,58.27
2023-03-19T03:33:27.620Z,58.33
2023-03-19T03:35:57.257Z,58.33
2023-03-19T03:38:25.171Z,58.30
2023-03-19T03:40:53.523Z,58.35
2023-03-19T03:43:21.551Z,58.23
2023-03-19T03:45:49.897Z,58.25
2023-03-19T03:48:17.932Z,58.38
2023-03-19T03:50:49.249Z,58.49
2023-03-19T03:53:18.552Z,58.47
2023-03-19T03:55:46.536Z,58.58
2023-03-19T03:58:14.461Z,58.53
2023-03-19T04:00:42.351Z,58.75
2023-03-19T04:03:10.406Z,58.69
2023-03-19T04:05:38.755Z,58.63
2023-03-19T04:08:07.198Z,58.76
2023-03-19T04:10:36.856Z,58.81
2023-03-19T04:13:04.833Z,58.86
2023-03-19T04:15:32.716Z,58.89
2023-03-19T04:18:00.596Z,59.10
2023-03-19T04:20:28.457Z,58.86
2023-03-19T04:22:56.406Z,58.81
2023-03-19T04:25:24.971Z,58.91
2023-03-19T04:27:54.213Z,58.79
2023-03-19T04:30:22.126Z,58.86
2023-03-19T04:32:50.044Z,58.96
2023-03-19T04:35:19.151Z,58.97
2023-03-19T04:37:48.805Z,59.04
2023-03-19T04:40:17.128Z,58.92
2023-03-19T04:42:45.738Z,58.97
2023-03-19T04:45:14.990Z,59.04
2023-03-19T04:47:42.862Z,58.83
2023-03-19T04:50:12.862Z,58.97
2023-03-19T04:52:40.741Z,58.89
2023-03-19T04:55:09.368Z,58.97
2023-03-19T04:57:37.311Z,58.92
2023-03-19T05:00:06.948Z,58.96
2023-03-19T05:02:36.508Z,58.93
2023-03-19T05:05:04.536Z,59.03
2023-03-19T05:07:32.476Z,58.91
2023-03-19T05:10:00.395Z,58.92
2023-03-19T05:12:28.276Z,58.89
2023-03-19T05:14:56.126Z,59.15
2023-03-19T05:17:23.970Z,58.76
2023-03-19T05:19:53.622Z,58.88
2023-03-19T05:22:21.530Z,58.62
2023-03-19T05:24:49.451Z,58.78
2023-03-19T05:27:17.340Z,58.63
2023-03-19T05:29:45.248Z,58.63
2023-03-19T05:32:13.752Z,58.59
2023-03-19T05:34:41.788Z,58.78
2023-03-19T05:37:11.154Z,58.56
2023-03-19T05:39:39.008Z,58.69
2023-03-19T05:42:07.486Z,58.67
2023-03-19T05:44:35.411Z,58.70
2023-03-19T05:47:03.276Z,58.73
2023-03-19T05:49:31.175Z,58.74
2023-03-19T05:51:59.162Z,58.76
2023-03-19T05:54:28.399Z,58.84
2023-03-19T05:56:56.343Z,58.72
2023-03-19T05:59:24.256Z,58.63
2023-03-19T06:01:52.274Z,58.68
2023-03-19T06:04:20.473Z,58.65
2023-03-19T06:06:48.400Z,58.64
2023-03-19T06:09:16.341Z,58.79
2023-03-19T06:11:45.623Z,58.65
2023-03-19T06:14:13.738Z,58.57
2023-03-19T06:16:41.599Z,58.46
2023-03-19T06:19:09.449Z,58.50
2023-03-19T06:21:37.335Z,58.53
2023-03-19T06:24:05.450Z,58.39
2023-03-19T06:26:33.324Z,58.45
2023-03-19T06:29:02.580Z,58.32
2023-03-19T06:31:30.530Z,58.35
2023-03-19T06:33:58.442Z,58.48
2023-03-19T06:36:26.393Z,58.33
2023-03-19T06:38:54.744Z,58.36
2023-03-19T06:41:22.707Z,58.45
2023-03-19T06:43:50.671Z,58.35
2023-03-19T06:46:20.360Z,58.50
2023-03-19T06:48:48.312Z,58.42
2023-03-19T06:51:16.167Z,58.48
2023-03-19T06:53:44.027Z,58.50
2023-03-19T06:56:11.922Z,58.56
2023-03-19T06:58:39.828Z,58.45
2023-03-19T07:01:07.737Z,58.47
2023-03-19T07:03:37.010Z,58.37
2023-03-19T07:06:05.138Z,58.47
2023-03-19T07:08:33.007Z,58.24
2023-03-19T07:11:05.228Z,58.18
2023-03-19T07:13:33.264Z,58.37
2023-03-19T07:16:01.204Z,58.34
2023-03-19T07:18:29.076Z,58.35
2023-03-19T07:20:58.339Z,58.41
2023-03-19T07:23:26.180Z,58.32
2023-03-19T07:25:54.091Z,58.29
2023-03-19T07:28:21.942Z,58.12
2023-03-19T07:30:49.779Z,58.24
2023-03-19T07:33:17.856Z,58.17
2023-03-19T07:35:45.912Z,58.24
2023-03-19T07:38:16.174Z,58.12
2023-03-19T07:40:54.944Z,57.94
2023-03-19T07:43:29.032Z,57.79
2023-03-19T07:45:56.960Z,57.71
2023-03-19T07:48:24.845Z,57.43
2023-03-19T07:50:52.757Z,57.35
2023-03-19T07:53:22.064Z,57.28
2023-03-19T07:55:50.614Z,57.28
2023-03-19T07:58:18.509Z,57.10
2023-03-19T08:00:46.364Z,56.75
2023-03-19T08:03:14.492Z,56.54
2023-03-19T08:05:42.538Z,56.03
2023-03-19T08:08:10.513Z,55.48
2023-03-19T08:10:39.943Z,55.29
2023-03-19T08:13:07.984Z,54.59
2023-03-19T08:15:35.941Z,54.13
2023-03-19T08:18:05.049Z,53.57
2023-03-19T08:20:33.496Z,53.51
2023-03-19T08:23:01.602Z,53.32
2023-03-19T08:25:32.554Z,53.35
2023-03-19T08:28:02.037Z,53.16
2023-03-19T08:30:30.233Z,52.19
2023-03-19T08:32:58.186Z,51.89
2023-03-19T08:35:27.482Z,51.27
2023-03-19T08:37:55.748Z,51.18
2023-03-19T08:40:23.952Z,50.64
2023-03-19T08:42:52.040Z,50.89
2023-03-19T08:45:21.911Z,50.62
2023-03-19T08:47:49.897Z,50.30
2023-03-19T08:50:18.170Z,50.21
2023-03-19T08:52:46.687Z,50.12
2023-03-19T08:55:14.699Z,50.37
2023-03-19T08:57:42.946Z,49.83
2023-03-19T09:00:12.539Z,49.19
2023-03-19T09:02:41.782Z,48.76
2023-03-19T09:05:10.572Z,48.51
2023-03-19T09:07:38.466Z,48.43
2023-03-19T09:10:07.560Z,48.46
2023-03-19T09:12:35.650Z,48.70
2023-03-19T09:15:04.528Z,48.67
2023-03-19T09:17:32.430Z,48.60
2023-03-19T09:20:01.679Z,47.93
2023-03-19T09:22:29.591Z,48.08
2023-03-19T09:24:57.480Z,47.40
2023-03-19T09:27:25.432Z,47.57
2023-03-19T09:29:53.303Z,47.87
2023-03-19T09:32:21.702Z,47.55
2023-03-19T09:34:49.580Z,47.69
2023-03-19T09:37:19.183Z,47.51
2023-03-19T09:39:47.061Z,47.37
2023-03-19T09:42:26.906Z,47.28
2023-03-19T09:44:55.188Z,47.22
2023-03-19T09:47:27.265Z,46.65
2023-03-19T09:49:57.959Z,46.78
2023-03-19T09:52:36.142Z,46.65
2023-03-19T09:55:09.168Z,46.76
2023-03-19T09:57:38.184Z,46.66
2023-03-19T10:00:14.857Z,46.73
2023-03-19T10:02:43.524Z,46.61
2023-03-19T10:05:17.155Z,45.99
2023-03-19T10:08:03.136Z,46.01
2023-03-19T10:10:38.338Z,46.08
2023-03-19T10:13:10.626Z,46.42
2023-03-19T10:15:39.624Z,45.70
2023-03-19T10:18:09.696Z,46.10
2023-03-19T10:20:43.442Z,46.04
2023-03-19T10:23:27.555Z,45.07
2023-03-19T10:25:56.512Z,44.06
2023-03-19T10:28:24.431Z,44.02
2023-03-19T10:30:57.071Z,43.99
2023-03-19T10:33:27.421Z,44.14
2023-03-19T10:35:58.712Z,44.11
2023-03-19T10:38:28.121Z,43.93
2023-03-19T10:41:06.073Z,43.70
2023-03-19T10:43:36.024Z,43.28
2023-03-19T10:46:04.001Z,43.07
2023-03-19T10:48:33.509Z,43.10
2023-03-19T10:51:02.341Z,42.73
2023-03-19T10:53:33.679Z,42.80
2023-03-19T10:56:03.536Z,42.87
2023-03-19T10:58:32.250Z,42.97
2023-03-19T11:01:04.513Z,42.73
2023-03-19T11:03:33.572Z,42.58
2023-03-19T11:06:17.244Z,42.26
2023-03-19T11:08:56.685Z,41.62
2023-03-19T11:11:26.288Z,42.24
2023-03-19T11:13:54.345Z,44.38
2023-03-19T11:16:22.380Z,45.36
2023-03-19T11:18:50.587Z,45.72
2023-03-19T11:21:26.333Z,44.49
2023-03-19T11:24:01.208Z,45.02
2023-03-19T11:26:29.703Z,44.99
2023-03-19T11:29:02.721Z,44.05
2023-03-19T11:31:34.157Z,43.51
2023-03-19T11:34:12.947Z,43.12
2023-03-19T11:36:43.491Z,43.00
2023-03-19T11:39:20.203Z,42.90
2023-03-19T11:42:09.005Z,41.16
2023-03-19T11:44:40.261Z,40.35
2023-03-19T11:47:24.596Z,40.48
2023-03-19T11:50:02.757Z,40.46
2023-03-19T11:52:33.512Z,40.00
2023-03-19T11:55:11.757Z,39.53
2023-03-19T11:57:50.255Z,39.84
2023-03-19T12:00:25.800Z,38.85
2023-03-19T12:03:16.383Z,38.75
2023-03-19T12:05:49.374Z,37.77
2023-03-19T12:08:22.696Z,37.80
2023-03-19T12:11:00.252Z,38.31
2023-03-19T12:13:38.162Z,38.22
2023-03-19T12:16:11.400Z,37.92
2023-03-19T12:18:49.660Z,37.38
2023-03-19T12:21:19.793Z,37.87
2023-03-19T12:23:56.047Z,37.53
2023-03-19T12:26:27.289Z,37.12
2023-03-19T12:28:57.597Z,35.91
2023-03-19T12:32:05.390Z,36.45
2023-03-19T12:34:36.099Z,37.05
2023-03-19T12:37:10.079Z,36.39
2023-03-19T12:39:39.458Z,36.56
2023-03-19T12:42:08.897Z,36.70
2023-03-19T12:44:38.681Z,37.26
2023-03-19T12:47:10.039Z,37.24
2023-03-19T12:49:39.147Z,37.07
2023-03-19T12:52:11.584Z,37.69
2023-03-19T12:54:40.822Z,37.05
2023-03-19T12:57:11.905Z,36.22
2023-03-19T12:59:41.608Z,36.51
2023-03-19T13:02:13.703Z,36.68
2023-03-19T13:04:43.616Z,35.72
2023-03-19T13:07:14.449Z,35.84
2023-03-19T13:09:47.667Z,35.45
2023-03-19T13:12:18.901Z,35.98
2023-03-19T13:14:51.254Z,34.66
2023-03-19T13:17:23.032Z,34.82
2023-03-19T13:19:56.580Z,35.12
2023-03-19T13:22:25.473Z,34.57
2023-03-19T13:24:56.372Z,34.65
2023-03-19T13:27:33.045Z,35.33
2023-03-19T13:30:04.120Z,35.28
2023-03-19T13:32:40.885Z,35.04
2023-03-19T13:35:36.478Z,35.41
2023-03-19T13:38:13.238Z,35.86
2023-03-19T13:40:43.902Z,36.17
2023-03-19T13:43:49.244Z,35.78
2023-03-19T13:46:39.922Z,35.83
2023-03-19T13:49:26.730Z,35.64
2023-03-19T13:52:01.498Z,36.44
2023-03-19T13:54:37.857Z,36.29
2023-03-19T13:57:17.093Z,35.84
2023-03-19T13:59:46.764Z,36.59
2023-03-19T14:02:59.004Z,37.42
2023-03-19T14:05:34.541Z,38.01
2023-03-19T14:08:02.475Z,38.04
2023-03-19T14:10:30.779Z,37.72
2023-03-19T14:13:08.125Z,37.74
2023-03-19T14:15:36.864Z,37.07
2023-03-19T14:18:06.283Z,36.43
2023-03-19T14:20:40.718Z,35.93
2023-03-19T14:23:23.518Z,36.22
2023-03-19T14:26:01.381Z,35.17
2023-03-19T14:28:36.359Z,35.41
2023-03-19T14:31:07.429Z,35.22
2023-03-19T14:33:41.277Z,35.11
2023-03-19T14:36:13.755Z,35.10
2023-03-19T14:38:44.520Z,34.29
2023-03-19T14:41:15.770Z,34.00
2023-03-19T14:43:57.234Z,33.77
2023-03-19T14:46:26.899Z,33.27
2023-03-19T14:49:16.767Z,33.39
2023-03-19T14:51:59.042Z,33.30
2023-03-19T14:54:33.367Z,33.76
2023-03-19T14:57:07.700Z,34.18
2023-03-19T14:59:39.466Z,34.52
2023-03-19T15:02:07.750Z,35.04
2023-03-19T15:04:35.918Z,35.55
2023-03-19T15:07:06.032Z,35.99
2023-03-19T15:09:34.282Z,36.30
2023-03-19T15:12:33.875Z,36.06
2023-03-19T15:15:38.655Z,36.43
2023-03-19T15:18:10.343Z,37.06
2023-03-19T15:20:39.342Z,37.24
2023-03-19T15:23:20.004Z,37.73
2023-03-19T15:25:56.902Z,37.91
2023-03-19T15:28:25.524Z,38.45
2023-03-19T15:31:05.728Z,38.89
2023-03-19T15:33:43.408Z,39.30
2023-03-19T15:36:16.414Z,39.56
2023-03-19T15:38:47.021Z,39.84
2023-03-19T15:41:14.925Z,39.83
2023-03-19T15:43:42.875Z,40.18
2023-03-19T15:46:12.345Z,40.41
2023-03-19T15:48:42.403Z,40.84
2023-03-19T15:51:10.411Z,41.11
2023-03-19T15:53:38.355Z,41.15
2023-03-19T15:56:08.580Z,41.29
2023-03-19T15:58:39.822Z,41.61
2023-03-19T16:01:08.522Z,41.73
2023-03-19T16:03:38.889Z,42.03
2023-03-19T16:06:07.895Z,42.37
2023-03-19T16:08:36.244Z,42.15
2023-03-19T16:11:29.553Z,42.53
2023-03-19T16:13:58.757Z,42.68
2023-03-19T16:16:27.485Z,43.05
2023-03-19T16:18:56.287Z,43.02
2023-03-19T16:21:25.591Z,43.17
2023-03-19T16:23:56.521Z,43.31
2023-03-19T16:26:26.022Z,43.57
2023-03-19T16:29:00.899Z,44.27
2023-03-19T16:31:32.072Z,44.39
2023-03-19T16:34:00.471Z,44.74
2023-03-19T16:36:32.780Z,45.05
2023-03-19T16:39:15.486Z,45.26
2023-03-19T16:41:43.413Z,45.44
2023-03-19T16:44:17.643Z,45.89
2023-03-19T16:46:45.720Z,46.38
2023-03-19T16:49:13.629Z,46.42
2023-03-19T16:51:41.573Z,46.68
2023-03-19T16:54:11.092Z,47.18
2023-03-19T16:56:39.154Z,47.15
2023-03-19T16:59:07.291Z,47.42
2023-03-19T17:01:36.602Z,47.41
2023-03-19T17:04:09.916Z,47.73
2023-03-19T17:06:37.917Z,47.59
2023-03-19T17:09:06.513Z,48.01
2023-03-19T17:11:36.965Z,48.36
2023-03-19T17:14:07.110Z,48.38
2023-03-19T17:16:36.567Z,48.20
2023-03-19T17:19:07.225Z,48.26
2023-03-19T17:21:35.925Z,48.39
2023-03-19T17:24:05.542Z,48.72
2023-03-19T17:26:33.458Z,48.74
2023-03-19T17:29:01.960Z,48.65
2023-03-19T17:31:30.639Z,48.84
2023-03-19T17:34:01.310Z,48.90
2023-03-19T17:36:29.241Z,48.85
2023-03-19T17:38:57.146Z,48.99
2023-03-19T17:41:25.086Z,49.18
2023-03-19T17:43:53.045Z,49.24
2023-03-19T17:46:22.296Z,49.20
2023-03-19T17:48:50.940Z,49.43
2023-03-19T17:51:20.906Z,49.56
2023-03-19T17:53:49.906Z,49.88
2023-03-19T17:56:19.264Z,50.03
2023-03-19T17:58:50.178Z,50.11
2023-03-19T18:01:19.377Z,50.03
2023-03-19T18:03:47.429Z,50.13
2023-03-19T18:06:17.164Z,50.12
2023-03-19T18:08:46.905Z,49.86
2023-03-19T18:11:14.812Z,49.90
2023-03-19T18:13:42.900Z,50.17
2023-03-19T18:16:15.655Z,50.06
2023-03-19T18:18:43.567Z,50.00
2023-03-19T18:21:12.479Z,50.15
2023-03-19T18:23:43.151Z,50.14
2023-03-19T18:26:12.489Z,50.38
2023-03-19T18:28:40.511Z,50.29
2023-03-19T18:31:12.864Z,50.33
2023-03-19T18:33:40.793Z,50.45
2023-03-19T18:36:09.208Z,50.61
2023-03-19T18:38:37.101Z,50.64
2023-03-19T18:41:05.139Z,50.72
2023-03-19T18:43:34.427Z,50.60
2023-03-19T18:46:02.318Z,50.64
2023-03-19T18:48:31.328Z,50.90
2023-03-19T18:50:59.287Z,50.95
2023-03-19T18:53:27.879Z,50.93
2023-03-19T18:55:55.952Z,51.16
2023-03-19T18:58:24.876Z,51.14
2023-03-19T19:00:54.357Z,51.22
2023-03-19T19:03:28.607Z,51.10
2023-03-19T19:05:56.926Z,51.23
2023-03-19T19:08:25.419Z,51.16
2023-03-19T19:10:54.258Z,51.28
2023-03-19T19:13:23.289Z,51.20
2023-03-19T19:15:51.186Z,51.31
2023-03-19T19:18:20.979Z,51.54
2023-03-19T19:20:49.139Z,51.52
2023-03-19T19:23:17.229Z,51.26
2023-03-19T19:25:45.159Z,51.53
2023-03-19T19:28:16.608Z,51.42
2023-03-19T19:30:45.778Z,51.56
2023-03-19T19:33:17.106Z,51.57
2023-03-19T19:35:46.529Z,51.49
2023-03-19T19:38:14.835Z,51.55
2023-03-19T19:40:45.350Z,51.60
2023-03-19T19:43:17.360Z,51.60
2023-03-19T19:45:46.776Z,51.58
2023-03-19T19:48:16.054Z,51.75
2023-03-19T19:50:46.254Z,51.78
2023-03-19T19:53:14.234Z,51.77
2023-03-19T19:55:42.382Z,51.75
2023-03-19T19:58:16.200Z,51.73
2023-03-19T20:00:53.306Z,51.81
2023-03-19T20:03:29.250Z,51.71
2023-03-19T20:05:58.841Z,52.01
2023-03-19T20:08:27.196Z,51.84
2023-03-19T20:10:55.261Z,51.76
2023-03-19T20:13:24.982Z,51.80
2023-03-19T20:15:53.276Z,51.94
2023-03-19T20:18:22.440Z,51.86
2023-03-19T20:20:50.599Z,51.81
2023-03-19T20:23:20.850Z,51.69
2023-03-19T20:25:48.977Z,51.69
2023-03-19T20:28:20.682Z,52.09
2023-03-19T20:30:48.598Z,51.89
2023-03-19T20:33:18.158Z,52.09
2023-03-19T20:35:46.416Z,52.00
2023-03-19T20:38:14.677Z,51.98
2023-03-19T20:40:46.008Z,52.16
2023-03-19T20:43:21.997Z,51.87
2023-03-19T20:45:49.857Z,52.06
2023-03-19T20:48:18.466Z,52.06
2023-03-19T20:50:46.513Z,52.10
2023-03-19T20:53:14.481Z,52.18
2023-03-19T20:55:42.463Z,52.09
2023-03-19T20:58:24.434Z,52.00
2023-03-19T21:00:53.001Z,52.20
2023-03-19T21:03:22.334Z,52.17
2023-03-19T21:05:51.880Z,52.19
2023-03-19T21:08:24.377Z,52.21
2023-03-19T21:10:53.097Z,52.22
2023-03-19T21:13:22.781Z,52.21
2023-03-19T21:15:50.637Z,52.16
2023-03-19T21:18:18.765Z,52.42
2023-03-19T21:20:48.291Z,52.10
2023-03-19T21:23:18.525Z,52.09
2023-03-19T21:25:46.523Z,52.14
2023-03-19T21:28:19.643Z,51.92
2023-03-19T21:30:48.884Z,52.21
2023-03-19T21:33:24.631Z,52.08
2023-03-19T21:35:52.699Z,52.13
2023-03-19T21:38:20.864Z,52.00
2023-03-19T21:40:49.114Z,52.02
2023-03-19T21:43:20.034Z,51.93
2023-03-19T21:45:49.682Z,51.93
2023-03-19T21:48:29.883Z,51.97
2023-03-19T21:50:58.089Z,52.07
2023-03-19T21:53:26.761Z,52.30
2023-03-19T21:55:55.187Z,52.31
2023-03-19T21:58:26.326Z,52.10
2023-03-19T22:00:56.071Z,52.36
2023-03-19T22:03:24.137Z,52.30
2023-03-19T22:05:52.179Z,52.23
2023-03-19T22:08:20.431Z,52.32
2023-03-19T22:10:49.933Z,52.38
2023-03-19T22:13:21.733Z,52.16
2023-03-19T22:15:50.615Z,52.53
2023-03-19T22:18:20.379Z,52.60
2023-03-19T22:20:48.692Z,52.58
2023-03-19T22:23:16.561Z,52.84
2023-03-19T22:25:44.799Z,52.79
2023-03-19T22:28:17.270Z,52.62
2023-03-19T22:30:45.299Z,52.60
2023-03-19T22:33:15.435Z,52.93
2023-03-19T22:35:45.116Z,53.06
2023-03-19T22:38:13.080Z,53.36
2023-03-19T22:40:41.097Z,53.38
2023-03-19T22:43:16.919Z,53.45
2023-03-19T22:45:44.881Z,53.50
2023-03-19T22:48:14.195Z,53.34
2023-03-19T22:50:42.833Z,53.79
2023-03-19T22:53:20.755Z,53.69
2023-03-19T22:55:48.624Z,53.73
2023-03-19T22:58:16.600Z,53.95
2023-03-19T23:00:44.486Z,54.17
2023-03-19T23:03:15.050Z,54.25
2023-03-19T23:05:43.017Z,54.22
2023-03-19T23:08:11.246Z,54.21
2023-03-19T23:10:40.948Z,54.08
2023-03-19T23:13:09.626Z,54.23
2023-03-19T23:15:37.698Z,54.31
2023-03-19T23:18:07.158Z,54.13
2023-03-19T23:20:35.002Z,54.30
2023-03-19T23:23:03.158Z,54.31
2023-03-19T23:25:31.326Z,54.66
2023-03-19T23:28:01.848Z,54.80
2023-03-19T23:30:31.694Z,54.60
2023-03-19T23:33:00.739Z,54.60
2023-03-19T23:35:29.576Z,54.90
2023-03-19T23:37:57.633Z,55.18
2023-03-19T23:40:27.047Z,54.93
2023-03-19T23:42:55.814Z,55.55
2023-03-19T23:45:29.968Z,55.55
2023-03-19T23:47:58.726Z,55.54
2023-03-19T23:50:26.730Z,55.96
2023-03-19T23:52:54.627Z,56.04
2023-03-19T23:55:22.558Z,56.12
2023-03-19T23:57:50.431Z,56.05
